Time;durP1;ratioP1;P1;durP2;ratioP2;P2;SDS_P1;SDS_P2;PMS_P1;PMS_P2;Temp;Humidity;BMP_temperature;BMP_pressure;BME280_temperature;BME280_humidity;BME280_pressure;Samples;Min_cycle;Max_cycle;Signal;HPM_P1;HPM_P2
2023/07/15 00:00:33;;;;;;;3.08;1.85;;;26.70;83.20;;;;;;5046502;28;20200;-24
2023/07/15 00:03:03;;;;;;;3.05;1.80;;;26.70;83.30;;;;;;5048066;28;20210;-24
2023/07/15 00:05:35;;;;;;;2.85;1.60;;;26.60;83.30;;;;;;5047279;28;20250;-24
2023/07/15 00:08:06;;;;;;;3.22;1.52;;;26.60;83.30;;;;;;5047094;28;20710;-25
2023/07/15 00:10:39;;;;;;;3.65;1.70;;;26.60;83.30;;;;;;5047867;28;20574;-24
2023/07/15 00:13:12;;;;;;;4.53;2.00;;;26.50;83.20;;;;;;5046411;28;20236;-24
2023/07/15 00:15:43;;;;;;;2.83;1.38;;;26.50;83.20;;;;;;5047572;28;20195;-25
2023/07/15 00:18:12;;;;;;;3.30;1.58;;;26.50;83.30;;;;;;5047877;28;20216;-25
2023/07/15 00:20:42;;;;;;;3.35;1.55;;;26.50;83.30;;;;;;5047007;28;20200;-24
2023/07/15 00:23:29;;;;;;;4.50;1.77;;;26.50;83.20;;;;;;5047613;28;20937;-25
2023/07/15 00:25:58;;;;;;;3.00;1.60;;;26.40;83.10;;;;;;5045919;28;20208;-24
2023/07/15 00:28:25;;;;;;;2.42;1.50;;;26.40;83.20;;;;;;5046177;28;20200;-24
2023/07/15 00:30:59;;;;;;;3.08;1.70;;;26.40;83.20;;;;;;5047312;28;20204;-24
2023/07/15 00:33:28;;;;;;;2.63;1.60;;;26.40;83.20;;;;;;5046206;28;20209;-24
2023/07/15 00:35:59;;;;;;;3.05;1.67;;;26.30;83.20;;;;;;5046539;28;20212;-24
2023/07/15 00:38:29;;;;;;;3.13;1.60;;;26.30;83.20;;;;;;5044702;28;20753;-24
2023/07/15 00:41:01;;;;;;;5.75;1.98;;;26.50;83.30;;;;;;5047933;28;20200;-24
2023/07/15 00:43:58;;;;;;;3.78;1.85;;;26.50;83.20;;;;;;5047470;28;20574;-25
2023/07/15 00:46:49;;;;;;;2.60;1.40;;;26.50;83.00;;;;;;5029051;28;20208;-25
2023/07/15 00:49:21;;;;;;;4.85;1.90;;;26.40;83.10;;;;;;5026632;28;20203;-25
2023/07/15 00:51:54;;;;;;;2.70;1.80;;;26.40;83.20;;;;;;5025628;28;20236;-24
2023/07/15 00:54:24;;;;;;;3.60;1.85;;;26.40;83.30;;;;;;5026041;28;20248;-24
2023/07/15 00:56:51;;;;;;;1.50;1.40;;;26.40;83.30;;;;;;5027402;28;20201;-24
2023/07/15 00:59:19;;;;;;;2.55;1.77;;;26.40;84.00;;;;;;5038053;28;20207;-25
2023/07/15 01:01:47;;;;;;;2.92;1.90;;;26.40;83.30;;;;;;5042178;28;20216;-25
2023/07/15 01:04:15;;;;;;;2.97;1.55;;;26.30;83.30;;;;;;5039691;28;20227;-24
2023/07/15 01:06:45;;;;;;;3.15;1.70;;;26.40;83.40;;;;;;5037724;28;20204;-24
2023/07/15 01:09:17;;;;;;;4.45;1.58;;;26.40;83.40;;;;;;5047184;28;20211;-24
2023/07/15 01:11:47;;;;;;;2.10;1.65;;;26.30;83.30;;;;;;5046126;28;20228;-25
2023/07/15 01:14:14;;;;;;;2.70;1.38;;;26.30;83.40;;;;;;5047395;28;20207;-25
2023/07/15 01:16:47;;;;;;;3.75;1.63;;;26.30;83.50;;;;;;5042404;28;20216;-25
2023/07/15 01:19:18;;;;;;;3.63;1.70;;;26.30;83.40;;;;;;5035670;28;20212;-24
2023/07/15 01:21:51;;;;;;;3.28;1.70;;;26.30;83.60;;;;;;5046675;28;20212;-24
2023/07/15 01:24:26;;;;;;;3.42;1.70;;;26.30;83.60;;;;;;5046204;28;20727;-25
2023/07/15 01:27:00;;;;;;;4.13;1.65;;;26.30;83.60;;;;;;5046248;28;20211;-24
2023/07/15 01:29:30;;;;;;;3.25;1.58;;;26.30;83.70;;;;;;5044826;28;20258;-25
2023/07/15 01:32:00;;;;;;;2.40;1.60;;;26.30;83.80;;;;;;5042590;28;20457;-25
2023/07/15 01:34:32;;;;;;;2.10;1.75;;;26.50;84.10;;;;;;5043540;28;20780;-24
2023/07/15 01:37:02;;;;;;;1.95;1.45;;;26.40;83.80;;;;;;5045021;28;20262;-25
2023/07/15 01:39:31;;;;;;;4.57;1.75;;;26.40;83.80;;;;;;5036183;28;20236;-24
2023/07/15 01:41:59;;;;;;;2.30;1.77;;;26.30;83.80;;;;;;5026469;28;20209;-24
2023/07/15 01:44:29;;;;;;;3.13;1.70;;;26.30;83.80;;;;;;5024971;28;20711;-24
2023/07/15 01:46:58;;;;;;;4.68;1.67;;;26.20;83.70;;;;;;5026747;28;20197;-24
2023/07/15 01:49:25;;;;;;;1.88;1.45;;;26.20;83.80;;;;;;5024645;28;20683;-25
2023/07/15 01:51:52;;;;;;;4.05;1.63;;;26.10;83.70;;;;;;5025178;28;20224;-24
2023/07/15 01:54:20;;;;;;;2.00;1.70;;;26.10;83.80;;;;;;5026096;28;20209;-24
2023/07/15 01:56:50;;;;;;;3.15;1.70;;;26.00;83.80;;;;;;5026846;28;20669;-25
2023/07/15 01:59:22;;;;;;;2.78;1.40;;;26.00;83.80;;;;;;5024720;28;20205;-24
2023/07/15 02:02:00;;;;;;;4.22;2.00;;;25.90;83.80;;;;;;5026372;28;20216;-25
2023/07/15 02:04:28;;;;;;;2.55;1.70;;;25.80;83.80;;;;;;5025585;28;20223;-24
2023/07/15 02:06:55;;;;;;;2.60;1.60;;;25.70;83.70;;;;;;5024930;28;20213;-25
2023/07/15 02:09:24;;;;;;;3.05;1.70;;;25.70;83.80;;;;;;5024639;28;20706;-25
2023/07/15 02:11:54;;;;;;;3.40;1.67;;;25.60;83.80;;;;;;5025220;28;20217;-25
2023/07/15 02:14:26;;;;;;;3.22;1.80;;;25.60;83.90;;;;;;5026426;28;20707;-25
2023/07/15 02:16:54;;;;;;;2.92;1.67;;;25.50;83.80;;;;;;5026542;28;20251;-25
2023/07/15 02:19:23;;;;;;;2.55;1.90;;;25.40;83.80;;;;;;5023780;28;20205;-25
2023/07/15 02:21:54;;;;;;;2.33;1.80;;;25.40;83.90;;;;;;5025209;28;20201;-25
2023/07/15 02:24:23;;;;;;;4.22;1.80;;;25.30;83.90;;;;;;5027440;28;20201;-25
2023/07/15 02:26:55;;;;;;;3.45;1.90;;;25.30;84.00;;;;;;5030526;28;20216;-25
2023/07/15 02:29:22;;;;;;;2.60;1.90;;;25.20;83.90;;;;;;5029832;28;20193;-25
2023/07/15 02:31:52;;;;;;;2.88;1.73;;;25.10;84.00;;;;;;5029394;28;20224;-25
2023/07/15 02:34:19;;;;;;;3.63;2.00;;;25.10;84.00;;;;;;5030017;28;20272;-25
2023/07/15 02:36:47;;;;;;;1.98;1.70;;;25.00;84.00;;;;;;5028260;28;20205;-25
2023/07/15 02:39:16;;;;;;;2.67;1.90;;;25.00;84.20;;;;;;5028068;28;20661;-25
2023/07/15 02:41:46;;;;;;;3.20;2.00;;;24.90;84.10;;;;;;5028990;28;20729;-25
2023/07/15 02:44:19;;;;;;;2.95;1.50;;;25.10;84.60;;;;;;5027973;28;20224;-25
2023/07/15 02:46:47;;;;;;;2.58;1.75;;;25.00;84.30;;;;;;5028406;28;20714;-25
2023/07/15 02:49:17;;;;;;;3.03;1.85;;;25.00;84.40;;;;;;5028738;28;20700;-25
2023/07/15 02:51:46;;;;;;;5.43;2.05;;;24.90;84.40;;;;;;5029569;28;20212;-25
2023/07/15 02:54:14;;;;;;;5.15;1.67;;;24.80;84.40;;;;;;5028197;28;20210;-25
2023/07/15 02:56:46;;;;;;;2.83;2.08;;;24.80;84.40;;;;;;5029895;28;20201;-25
2023/07/15 02:59:14;;;;;;;3.55;1.70;;;24.70;84.30;;;;;;5029104;28;20303;-25
2023/07/15 03:01:43;;;;;;;3.00;1.80;;;24.70;84.40;;;;;;5029201;28;20201;-25
2023/07/15 03:04:11;;;;;;;2.85;1.70;;;24.60;84.50;;;;;;5028223;28;20197;-25
2023/07/15 03:06:38;;;;;;;3.55;1.80;;;24.60;84.60;;;;;;5028590;28;20583;-25
2023/07/15 03:09:11;;;;;;;2.33;1.90;;;24.50;84.70;;;;;;5027126;28;20204;-24
2023/07/15 03:11:38;;;;;;;3.38;1.80;;;24.50;84.80;;;;;;5026837;28;20798;-24
2023/07/15 03:14:08;;;;;;;3.88;1.83;;;24.50;84.80;;;;;;5028197;28;20622;-24
2023/07/15 03:16:37;;;;;;;4.85;1.80;;;24.40;84.90;;;;;;5028936;28;20199;-25
2023/07/15 03:19:04;;;;;;;2.85;1.75;;;24.30;84.90;;;;;;5025172;28;20417;-24
2023/07/15 03:21:34;;;;;;;3.13;1.70;;;24.50;85.50;;;;;;5029005;28;20213;-24
2023/07/15 03:24:01;;;;;;;2.17;1.55;;;24.50;85.30;;;;;;5026660;28;20200;-25
2023/07/15 03:26:31;;;;;;;2.55;1.67;;;24.40;85.20;;;;;;5027022;28;20200;-25
2023/07/15 03:28:59;;;;;;;3.67;2.00;;;24.30;85.20;;;;;;5039989;28;20426;-24
2023/07/15 03:31:26;;;;;;;2.65;1.50;;;24.50;86.50;;;;;;5049006;28;20192;-24
2023/07/15 03:33:56;;;;;;;3.08;1.48;;;24.40;85.60;;;;;;5047097;28;20260;-24
2023/07/15 03:36:24;;;;;;;4.20;1.88;;;24.30;85.50;;;;;;5048418;28;20218;-24
2023/07/15 03:38:52;;;;;;;2.20;1.35;;;24.20;85.50;;;;;;5046880;28;20232;-24
2023/07/15 03:41:22;;;;;;;4.80;1.73;;;24.20;85.60;;;;;;5046925;28;20242;-24
2023/07/15 03:43:52;;;;;;;3.47;1.58;;;24.10;85.50;;;;;;5048634;28;20220;-24
2023/07/15 03:46:23;;;;;;;3.33;1.70;;;24.00;85.50;;;;;;5046853;28;20209;-24
2023/07/15 03:48:50;;;;;;;2.95;1.67;;;24.00;85.50;;;;;;5046865;28;20578;-24
2023/07/15 03:51:20;;;;;;;3.22;1.58;;;24.20;86.20;;;;;;5047358;28;20239;-24
2023/07/15 03:53:48;;;;;;;1.98;1.33;;;24.10;86.00;;;;;;5048529;28;20621;-25
2023/07/15 03:56:15;;;;;;;2.83;1.80;;;24.00;85.80;;;;;;5046504;28;20218;-24
2023/07/15 03:58:47;;;;;;;2.17;1.50;;;24.00;86.00;;;;;;5047016;28;20298;-24
2023/07/15 04:01:17;;;;;;;3.60;1.67;;;23.90;86.10;;;;;;5048472;28;20204;-24
2023/07/15 04:03:47;;;;;;;1.60;1.40;;;23.90;86.10;;;;;;5049023;28;20759;-24
2023/07/15 04:06:16;;;;;;;2.42;1.70;;;23.90;86.00;;;;;;5046017;28;20219;-24
2023/07/15 04:08:49;;;;;;;1.60;1.30;;;23.80;85.80;;;;;;5046851;28;20205;-25
2023/07/15 04:11:23;;;;;;;3.08;1.50;;;23.90;85.90;;;;;;5046322;28;20204;-24
2023/07/15 04:13:51;;;;;;;2.10;1.40;;;23.90;86.10;;;;;;5047687;28;20227;-24
2023/07/15 04:16:20;;;;;;;2.97;1.40;;;23.90;86.10;;;;;;5046236;28;20707;-24
2023/07/15 04:18:52;;;;;;;3.15;1.50;;;23.90;86.30;;;;;;5047914;28;20262;-24
2023/07/15 04:21:22;;;;;;;2.80;1.70;;;23.90;86.30;;;;;;5043498;28;20422;-24
2023/07/15 04:23:56;;;;;;;2.17;1.50;;;24.10;87.10;;;;;;5028437;28;20424;-24
2023/07/15 04:26:27;;;;;;;3.35;1.90;;;24.30;87.40;;;;;;5027710;28;20204;-24
2023/07/15 04:28:57;;;;;;;2.88;1.70;;;24.30;87.20;;;;;;5027811;28;20292;-25
2023/07/15 04:31:26;;;;;;;4.00;1.67;;;24.20;87.10;;;;;;5026158;28;20196;-24
2023/07/15 04:33:56;;;;;;;1.55;1.25;;;24.10;87.00;;;;;;5027727;28;20703;-24
2023/07/15 04:36:25;;;;;;;2.92;1.70;;;24.10;87.00;;;;;;5025802;28;20228;-24
2023/07/15 04:38:55;;;;;;;2.15;1.63;;;24.10;87.10;;;;;;5026107;28;20244;-24
2023/07/15 04:41:24;;;;;;;1.60;1.42;;;24.10;87.30;;;;;;5027404;28;20817;-24
2023/07/15 04:43:56;;;;;;;4.30;1.73;;;24.10;87.50;;;;;;5027323;28;20215;-24
2023/07/15 04:46:26;;;;;;;3.78;1.58;;;24.10;87.40;;;;;;5026608;28;20205;-24
2023/07/15 04:48:53;;;;;;;3.08;1.42;;;24.10;87.40;;;;;;5025990;28;21056;-24
2023/07/15 04:51:25;;;;;;;2.22;1.48;;;24.10;87.30;;;;;;5026618;28;20259;-24
2023/07/15 04:53:56;;;;;;;2.03;1.65;;;24.10;87.40;;;;;;5027571;28;20302;-25
2023/07/15 04:56:24;;;;;;;1.60;1.48;;;24.20;87.50;;;;;;5029204;28;20218;-24
2023/07/15 04:58:54;;;;;;;5.45;1.50;;;24.20;87.50;;;;;;5046734;28;20215;-25
2023/07/15 05:01:24;;;;;;;2.05;1.50;;;24.20;87.70;;;;;;5046779;28;20689;-24
2023/07/15 05:03:53;;;;;;;2.25;1.50;;;24.30;88.10;;;;;;5032430;28;20200;-24
2023/07/15 05:06:21;;;;;;;1.77;1.15;;;24.30;87.90;;;;;;5029806;28;20217;-24
2023/07/15 05:08:48;;;;;;;2.90;1.55;;;24.30;88.00;;;;;;5035953;28;20201;-24
2023/07/15 05:11:19;;;;;;;3.45;1.38;;;24.40;88.10;;;;;;5034374;28;20582;-24
2023/07/15 05:13:46;;;;;;;4.25;1.40;;;24.50;88.40;;;;;;5030067;28;20322;-24
2023/07/15 05:16:16;;;;;;;3.45;1.58;;;24.50;88.40;;;;;;5028645;28;20196;-24
2023/07/15 05:18:43;;;;;;;2.15;1.50;;;24.50;88.50;;;;;;5026638;28;20208;-25
2023/07/15 05:21:14;;;;;;;3.15;1.73;;;24.60;88.60;;;;;;5030056;28;20575;-25
2023/07/15 05:23:45;;;;;;;2.13;1.48;;;24.70;88.90;;;;;;5026832;28;20225;-24
2023/07/15 05:26:14;;;;;;;2.10;1.35;;;24.70;88.80;;;;;;5026671;28;20585;-25
2023/07/15 05:28:44;;;;;;;1.70;1.30;;;24.80;88.90;;;;;;5026550;28;20205;-25
2023/07/15 05:31:11;;;;;;;1.77;1.50;;;24.90;89.10;;;;;;5026296;28;20796;-25
2023/07/15 05:33:38;;;;;;;2.40;1.25;;;25.00;89.30;;;;;;5044163;28;20230;-25
2023/07/15 05:36:11;;;;;;;1.85;1.08;;;25.00;89.40;;;;;;5044108;28;20204;-25
2023/07/15 05:38:42;;;;;;;2.13;1.50;;;25.10;89.50;;;;;;5045876;28;20526;-26
2023/07/15 05:41:13;;;;;;;3.88;1.63;;;25.20;89.60;;;;;;5024329;28;20559;-25
2023/07/15 05:43:40;;;;;;;2.05;1.30;;;25.20;89.70;;;;;;5025626;28;20730;-25
2023/07/15 05:46:10;;;;;;;2.78;1.20;;;25.30;89.70;;;;;;5039525;28;20204;-25
2023/07/15 05:48:37;;;;;;;1.70;1.00;;;25.30;89.70;;;;;;5027495;28;20221;-25
2023/07/15 05:51:10;;;;;;;2.55;1.30;;;25.30;89.70;;;;;;5035592;28;20685;-25
2023/07/15 05:53:42;;;;;;;1.95;1.42;;;25.40;89.90;;;;;;5046285;28;20216;-25
2023/07/15 05:56:16;;;;;;;6.40;1.40;;;25.40;89.90;;;;;;5046183;28;20207;-25
2023/07/15 05:58:46;;;;;;;1.65;1.30;;;25.50;90.00;;;;;;5033998;28;20208;-25
2023/07/15 06:01:15;;;;;;;2.75;1.40;;;25.60;90.00;;;;;;5037109;28;20461;-25
2023/07/15 06:03:45;;;;;;;1.92;1.30;;;25.80;90.30;;;;;;5040654;28;20214;-25
2023/07/15 06:06:17;;;;;;;2.17;1.35;;;25.80;90.10;;;;;;5048378;28;20281;-25
2023/07/15 06:08:45;;;;;;;2.33;1.42;;;25.90;90.20;;;;;;5048654;28;20195;-26
2023/07/15 06:11:15;;;;;;;2.20;1.50;;;25.90;90.20;;;;;;5037624;28;20562;-25
2023/07/15 06:13:43;;;;;;;3.40;1.42;;;25.90;90.30;;;;;;5032563;28;20264;-25
2023/07/15 06:16:14;;;;;;;3.55;1.70;;;26.00;90.30;;;;;;5034937;28;20405;-25
2023/07/15 06:18:42;;;;;;;3.95;1.40;;;26.20;90.50;;;;;;5032999;28;20196;-25
2023/07/15 06:21:11;;;;;;;4.88;1.65;;;26.30;90.50;;;;;;5039784;28;20490;-25
2023/07/15 06:23:39;;;;;;;2.45;1.20;;;26.50;90.70;;;;;;5042555;28;20571;-25
2023/07/15 06:26:08;;;;;;;3.20;1.40;;;26.50;90.60;;;;;;5028884;28;20216;-22
2023/07/15 06:28:40;;;;;;;2.30;1.48;;;26.50;90.60;;;;;;5038694;28;20205;-25
2023/07/15 06:31:08;;;;;;;3.15;1.50;;;26.60;90.60;;;;;;5030878;28;20252;-25
2023/07/15 06:33:36;;;;;;;1.10;1.00;;;26.60;91.00;;;;;;5029334;28;20311;-25
2023/07/15 06:36:04;;;;;;;2.17;1.30;;;26.60;90.80;;;;;;5029434;28;20216;-25
2023/07/15 06:38:34;;;;;;;1.95;1.40;;;26.60;90.80;;;;;;5034496;28;20233;-38
2023/07/15 06:41:03;;;;;;;1.67;1.35;;;26.60;90.80;;;;;;5041876;28;20215;-38
2023/07/15 06:43:34;;;;;;;2.80;1.30;;;26.60;90.80;;;;;;5040402;28;20204;-37
2023/07/15 06:46:01;;;;;;;2.05;1.60;;;26.70;90.80;;;;;;5031352;28;20299;-37
2023/07/15 06:48:29;;;;;;;2.92;1.30;;;26.70;90.90;;;;;;5046487;28;20220;-37
2023/07/15 06:50:58;;;;;;;2.38;1.40;;;26.70;90.90;;;;;;5038194;28;20208;-36
2023/07/15 06:53:25;;;;;;;2.72;1.33;;;26.70;90.90;;;;;;5045511;28;20221;-37
2023/07/15 06:55:55;;;;;;;4.15;1.48;;;26.70;90.90;;;;;;5027430;28;20683;-36
2023/07/15 06:58:40;;;;;;;2.15;1.30;;;26.70;91.00;;;;;;5041192;28;20208;-37
2023/07/15 07:01:13;;;;;;;1.67;1.17;;;26.80;90.90;;;;;;5035201;28;20212;-37
2023/07/15 07:03:41;;;;;;;2.00;1.27;;;26.80;91.00;;;;;;5029142;28;20201;-36
2023/07/15 07:06:13;;;;;;;2.70;1.52;;;26.80;91.00;;;;;;5026398;28;20220;-36
2023/07/15 07:08:43;;;;;;;2.63;1.30;;;26.80;91.00;;;;;;5027151;28;20464;-36
2023/07/15 07:11:12;;;;;;;2.55;1.25;;;27.00;91.20;;;;;;5028010;28;20701;-37
2023/07/15 07:13:43;;;;;;;2.90;1.10;;;27.00;91.10;;;;;;5034953;28;20624;-38
2023/07/15 07:16:10;;;;;;;2.25;1.60;;;27.10;91.10;;;;;;5044411;28;20262;-36
2023/07/15 07:18:42;;;;;;;3.10;1.58;;;27.10;91.10;;;;;;5034155;28;20210;-37
2023/07/15 07:21:14;;;;;;;3.05;1.58;;;27.10;91.10;;;;;;5029287;28;20411;-36
2023/07/15 07:23:41;;;;;;;3.03;1.58;;;27.30;91.10;;;;;;5041638;28;20220;-35
2023/07/15 07:26:11;;;;;;;1.80;1.20;;;27.30;91.00;;;;;;5047424;28;20207;-36
2023/07/15 07:28:43;;;;;;;2.20;1.38;;;27.30;91.00;;;;;;5042823;28;20204;-36
2023/07/15 07:31:16;;;;;;;3.05;1.65;;;27.30;91.00;;;;;;5041274;28;20200;-36
2023/07/15 07:33:45;;;;;;;2.95;1.40;;;27.30;91.00;;;;;;5034985;28;20706;-36
2023/07/15 07:36:12;;;;;;;2.67;1.75;;;27.30;91.00;;;;;;5026308;28;20427;-36
2023/07/15 07:38:43;;;;;;;6.85;1.83;;;27.30;91.10;;;;;;5027072;28;20233;-37
2023/07/15 07:41:16;;;;;;;3.50;1.55;;;27.30;91.10;;;;;;5031215;28;20331;-37
2023/07/15 07:43:44;;;;;;;4.07;1.90;;;27.30;91.10;;;;;;5044493;28;20205;-37
2023/07/15 07:46:14;;;;;;;2.85;1.35;;;27.40;91.20;;;;;;5040793;28;20207;-37
2023/07/15 07:48:43;;;;;;;3.72;1.65;;;27.40;91.20;;;;;;5048336;28;20215;-37
2023/07/15 07:51:13;;;;;;;3.03;1.25;;;27.40;91.20;;;;;;5040136;28;20217;-37
2023/07/15 07:53:43;;;;;;;2.83;1.50;;;27.40;91.20;;;;;;5037489;28;20765;-36
2023/07/15 07:56:11;;;;;;;2.00;1.30;;;27.40;91.20;;;;;;5031500;28;20666;-37
2023/07/15 07:58:42;;;;;;;4.55;1.60;;;27.40;91.30;;;;;;5032150;28;20597;-37
2023/07/15 08:01:12;;;;;;;1.65;1.40;;;27.40;91.30;;;;;;5028004;28;20542;-37
2023/07/15 08:03:42;;;;;;;5.28;1.77;;;27.40;91.40;;;;;;5028649;28;20621;-37
2023/07/15 08:06:11;;;;;;;4.82;1.65;;;27.40;91.50;;;;;;5027367;28;20204;-36
2023/07/15 08:08:41;;;;;;;2.28;1.52;;;27.40;91.50;;;;;;5027923;28;20252;-37
2023/07/15 08:11:11;;;;;;;4.18;1.50;;;27.50;91.50;;;;;;5025730;28;20670;-37
2023/07/15 08:13:41;;;;;;;2.42;1.40;;;27.50;91.50;;;;;;5028278;28;20227;-37
2023/07/15 08:16:27;;;;;;;2.35;1.20;;;27.50;91.60;;;;;;5026471;28;20262;-37
2023/07/15 08:18:57;;;;;;;1.92;1.20;;;27.50;91.70;;;;;;5045047;28;20192;-37
2023/07/15 08:21:27;;;;;;;2.30;1.40;;;27.60;91.60;;;;;;5050862;28;20200;-37
2023/07/15 08:23:57;;;;;;;4.00;1.83;;;27.50;91.60;;;;;;5027793;28;20197;-37
2023/07/15 08:26:27;;;;;;;1.98;1.38;;;27.50;91.60;;;;;;5028373;28;20571;-36
2023/07/15 08:28:58;;;;;;;2.10;1.30;;;27.60;91.60;;;;;;5032320;28;20223;-37
2023/07/15 08:31:27;;;;;;;2.28;1.55;;;27.50;91.60;;;;;;5027798;28;20209;-32
2023/07/15 08:33:57;;;;;;;5.88;1.58;;;27.50;91.60;;;;;;5034687;28;20216;-34
2023/07/15 08:36:27;;;;;;;1.50;1.20;;;27.50;91.60;;;;;;5027742;28;20200;-34
2023/07/15 08:38:56;;;;;;;3.08;1.50;;;27.40;91.70;;;;;;5043829;28;20309;-34
2023/07/15 08:41:26;;;;;;;2.65;1.60;;;27.40;91.60;;;;;;5037263;28;20540;-34
2023/07/15 08:43:53;;;;;;;3.08;1.42;;;27.50;91.90;;;;;;5037124;28;20204;-34
2023/07/15 08:46:27;;;;;;;3.33;1.75;;;27.50;92.00;;;;;;5033581;28;20208;-34
2023/07/15 08:48:59;;;;;;;2.67;1.10;;;27.40;92.10;;;;;;5026754;28;20468;-34
2023/07/15 08:51:34;;;;;;;3.72;1.40;;;27.40;92.30;;;;;;5028798;28;20204;-33
2023/07/15 08:54:08;;;;;;;4.15;1.50;;;27.50;92.40;;;;;;5026462;28;20247;-33
2023/07/15 08:56:38;;;;;;;6.22;1.40;;;27.50;92.40;;;;;;5029356;28;20683;-32
2023/07/15 08:59:09;;;;;;;5.28;1.70;;;27.50;92.50;;;;;;5043315;28;20418;-34
2023/07/15 09:01:41;;;;;;;2.83;1.30;;;27.80;93.00;;;;;;5033696;28;20197;-33
2023/07/15 09:04:13;;;;;;;1.75;1.20;;;27.80;92.90;;;;;;5039585;28;20215;-33
2023/07/15 09:06:44;;;;;;;2.72;1.17;;;27.80;93.00;;;;;;5027006;28;20620;-33
2023/07/15 09:09:14;;;;;;;2.00;1.38;;;27.80;93.00;;;;;;5024992;28;20209;-33
2023/07/15 09:11:42;;;;;;;2.72;1.67;;;27.80;93.10;;;;;;5031318;28;20220;-33
2023/07/15 09:14:18;;;;;;;2.05;1.30;;;27.80;93.00;;;;;;5041015;28;20227;-33
2023/07/15 09:16:51;;;;;;;1.90;1.08;;;27.80;93.20;;;;;;5035036;28;20739;-33
2023/07/15 09:19:22;;;;;;;4.55;1.58;;;27.70;93.00;;;;;;5041675;28;20218;-33
2023/07/15 09:22:08;;;;;;;1.23;1.00;;;27.60;93.10;;;;;;5033328;28;20209;-33
2023/07/15 09:24:37;;;;;;;4.47;1.55;;;27.60;93.50;;;;;;5025342;28;20966;-33
2023/07/15 09:27:07;;;;;;;2.00;1.10;;;27.50;93.20;;;;;;5028268;28;20214;-33
2023/07/15 09:29:37;;;;;;;1.83;0.93;;;27.40;93.30;;;;;;5032000;28;20216;-33
2023/07/15 09:32:07;;;;;;;2.08;1.27;;;27.40;93.30;;;;;;5042892;28;20216;-33
2023/07/15 09:34:41;;;;;;;2.80;1.20;;;27.30;93.50;;;;;;5045658;28;20309;-33
2023/07/15 09:37:26;;;;;;;4.13;1.42;;;27.20;93.70;;;;;;5042812;28;20196;-33
2023/07/15 09:40:00;;;;;;;2.08;1.38;;;27.20;93.50;;;;;;5027666;28;20217;-33
2023/07/15 09:42:28;;;;;;;4.72;1.40;;;27.10;93.70;;;;;;5026224;28;20208;-33
2023/07/15 09:44:59;;;;;;;2.58;1.25;;;27.10;93.70;;;;;;5024790;28;20291;-33
2023/07/15 09:47:29;;;;;;;3.58;1.40;;;27.00;93.80;;;;;;5034088;28;20212;-33
2023/07/15 09:49:56;;;;;;;2.75;1.20;;;27.00;94.00;;;;;;5045728;28;20369;-33
2023/07/15 09:52:31;;;;;;;5.25;1.63;;;27.00;94.30;;;;;;5028279;28;20274;-33
2023/07/15 09:54:59;;;;;;;3.15;1.55;;;27.10;94.20;;;;;;5027867;28;20232;-33
2023/07/15 09:57:28;;;;;;;2.53;1.30;;;27.00;94.30;;;;;;5038374;28;20211;-33
2023/07/15 09:59:57;;;;;;;2.22;1.35;;;27.00;94.20;;;;;;5045409;28;20660;-33
2023/07/15 10:02:34;;;;;;;2.20;1.08;;;27.10;94.50;;;;;;5041998;28;20200;-33
2023/07/15 10:05:09;;;;;;;2.58;1.10;;;27.10;94.70;;;;;;5034475;28;20672;-33
2023/07/15 10:07:40;;;;;;;2.15;1.40;;;27.10;94.60;;;;;;5027448;28;20250;-33
2023/07/15 10:10:13;;;;;;;2.75;1.65;;;27.20;94.60;;;;;;5039799;28;20218;-33
2023/07/15 10:12:44;;;;;;;3.92;1.67;;;27.20;94.60;;;;;;5042070;28;20235;-33
2023/07/15 10:15:16;;;;;;;2.00;1.30;;;27.20;94.70;;;;;;5039084;28;20232;-33
2023/07/15 10:17:46;;;;;;;3.88;1.42;;;27.20;94.70;;;;;;5037018;28;20201;-33
2023/07/15 10:20:14;;;;;;;1.77;1.33;;;27.20;94.60;;;;;;5022573;28;20675;-33
2023/07/15 10:22:48;;;;;;;1.50;1.35;;;27.20;94.70;;;;;;5029024;28;20231;-33
2023/07/15 10:25:15;;;;;;;1.48;1.30;;;27.20;94.70;;;;;;5027418;28;20328;-33
2023/07/15 10:27:47;;;;;;;2.70;1.75;;;27.20;94.70;;;;;;5030571;28;20205;-33
2023/07/15 10:30:28;;;;;;;2.30;1.48;;;27.20;94.80;;;;;;5042066;28;20228;-33
2023/07/15 10:33:00;;;;;;;2.63;1.70;;;27.20;94.80;;;;;;5031619;28;20947;-33
2023/07/15 10:35:32;;;;;;;1.42;1.33;;;27.40;95.30;;;;;;5024651;28;20255;-33
2023/07/15 10:38:19;;;;;;;5.88;1.67;;;27.40;95.20;;;;;;5029700;28;20809;-33
2023/07/15 10:41:02;;;;;;;3.60;1.90;;;27.50;95.40;;;;;;5028783;28;20211;-33
2023/07/15 10:43:39;;;;;;;2.33;1.27;;;27.50;95.10;;;;;;5027679;28;20196;-33
2023/07/15 10:46:10;;;;;;;2.05;1.60;;;27.40;95.10;;;;;;5049115;28;20226;-33
2023/07/15 10:48:44;;;;;;;2.15;1.52;;;27.40;95.10;;;;;;5046161;28;20701;-33
2023/07/15 10:51:12;;;;;;;2.90;1.52;;;27.30;95.00;;;;;;5039521;28;20698;-33
2023/07/15 10:53:41;;;;;;;4.35;2.03;;;27.30;95.10;;;;;;5035917;28;20204;-33
2023/07/15 10:56:11;;;;;;;2.50;1.50;;;27.40;95.20;;;;;;5044398;28;20216;-33
2023/07/15 10:58:41;;;;;;;2.50;1.50;;;27.40;95.20;;;;;;5036992;28;20204;-33
2023/07/15 11:01:10;;;;;;;1.98;1.65;;;27.50;95.30;;;;;;5036193;28;20619;-33
2023/07/15 11:03:41;;;;;;;3.17;1.70;;;27.50;95.20;;;;;;5030516;28;20875;-33
2023/07/15 11:06:11;;;;;;;3.80;1.67;;;27.80;95.80;;;;;;5035604;28;20217;-33
2023/07/15 11:08:44;;;;;;;2.77;1.80;;;27.90;95.50;;;;;;5031827;28;20856;-33
2023/07/15 11:11:12;;;;;;;3.38;1.92;;;28.10;95.80;;;;;;5038681;28;20201;-33
2023/07/15 11:13:42;;;;;;;2.72;1.65;;;28.10;95.70;;;;;;5036798;28;20298;-33
2023/07/15 11:16:09;;;;;;;3.60;1.80;;;28.10;95.60;;;;;;5036488;28;20304;-33
2023/07/15 11:18:36;;;;;;;2.40;1.50;;;28.10;95.50;;;;;;5044032;28;20192;-33
2023/07/15 11:21:05;;;;;;;3.20;1.75;;;28.10;95.60;;;;;;5034031;28;20205;-33
2023/07/15 11:23:32;;;;;;;3.95;1.90;;;28.10;95.60;;;;;;5029751;28;20217;-33
2023/07/15 11:26:12;;;;;;;3.10;2.05;;;28.20;95.70;;;;;;5033048;28;20204;-25
2023/07/15 11:28:50;;;;;;;4.70;2.00;;;28.20;95.80;;;;;;5045001;28;20200;-25
2023/07/15 11:31:26;;;;;;;2.42;1.70;;;28.30;95.70;;;;;;5035844;28;20409;-26
2023/07/15 11:33:57;;;;;;;1.90;1.65;;;28.50;95.80;;;;;;5039666;28;20211;-33
2023/07/15 11:36:24;;;;;;;2.92;1.77;;;28.50;95.70;;;;;;5033434;28;20193;-34
2023/07/15 11:38:51;;;;;;;3.80;1.80;;;28.50;95.70;;;;;;5026485;28;20232;-33
2023/07/15 11:41:25;;;;;;;5.32;1.90;;;28.60;95.60;;;;;;5031102;28;20197;-32
2023/07/15 11:43:53;;;;;;;2.75;1.90;;;28.60;95.60;;;;;;5027966;28;20413;-33
2023/07/15 11:46:21;;;;;;;3.28;1.92;;;28.70;95.90;;;;;;5038176;28;20555;-33
2023/07/15 11:48:48;;;;;;;2.15;1.73;;;28.70;95.80;;;;;;5032016;28;20240;-25
2023/07/15 11:51:16;;;;;;;3.83;1.42;;;28.70;95.80;;;;;;5026042;28;20196;-26
2023/07/15 11:53:44;;;;;;;1.83;1.60;;;28.70;95.70;;;;;;5041089;28;20209;-26
2023/07/15 11:56:30;;;;;;;2.28;1.50;;;28.60;95.60;;;;;;5042581;28;20242;-26
2023/07/15 11:59:00;;;;;;;2.22;1.48;;;28.60;95.60;;;;;;5032192;28;20221;-26
2023/07/15 12:01:28;;;;;;;2.97;1.63;;;28.60;95.60;;;;;;5035304;28;20213;-26
2023/07/15 12:03:57;;;;;;;4.35;1.67;;;28.60;95.60;;;;;;5026204;28;20203;-26
2023/07/15 12:06:28;;;;;;;2.65;1.50;;;28.60;95.60;;;;;;5029468;28;20204;-25
2023/07/15 12:09:04;;;;;;;3.47;1.70;;;28.60;95.60;;;;;;5029808;28;20197;-25
2023/07/15 12:11:34;;;;;;;3.75;1.40;;;28.60;95.80;;;;;;5037175;28;20204;-25
2023/07/15 12:14:03;;;;;;;4.80;1.52;;;28.70;95.60;;;;;;5031444;28;20517;-26
2023/07/15 12:16:34;;;;;;;2.53;1.30;;;28.70;95.60;;;;;;5030453;28;20277;-26
2023/07/15 12:19:03;;;;;;;3.08;1.70;;;28.70;95.50;;;;;;5029848;28;20413;-26
2023/07/15 12:21:32;;;;;;;4.20;1.45;;;28.90;95.60;;;;;;5022929;28;20415;-25
2023/07/15 12:24:02;;;;;;;4.57;1.60;;;29.00;95.50;;;;;;5032729;28;20858;-25
2023/07/15 12:26:32;;;;;;;1.90;1.30;;;29.00;95.30;;;;;;5036137;28;20216;-25
2023/07/15 12:29:02;;;;;;;1.70;1.30;;;29.00;95.20;;;;;;5032885;28;20276;-25
2023/07/15 12:31:30;;;;;;;2.70;1.60;;;29.00;95.00;;;;;;5038733;28;20746;-25
2023/07/15 12:34:00;;;;;;;2.80;1.52;;;28.90;95.00;;;;;;5024455;28;20519;-25
2023/07/15 12:36:31;;;;;;;2.22;1.45;;;28.90;94.90;;;;;;5028279;28;20705;-25
2023/07/15 12:38:58;;;;;;;3.47;1.45;;;28.90;95.00;;;;;;5034900;28;20234;-25
2023/07/15 12:41:26;;;;;;;3.70;1.60;;;29.00;94.90;;;;;;5028394;28;20201;-25
2023/07/15 12:43:53;;;;;;;4.90;1.90;;;29.00;94.80;;;;;;5027446;28;20205;-26
2023/07/15 12:46:25;;;;;;;4.28;1.40;;;29.00;94.80;;;;;;5030573;28;20288;-25
2023/07/15 12:48:55;;;;;;;6.72;2.13;;;29.10;94.70;;;;;;5046981;28;20735;-25
2023/07/15 12:51:22;;;;;;;3.60;1.70;;;29.10;94.70;;;;;;5044865;28;20225;-25
2023/07/15 12:53:51;;;;;;;2.92;1.67;;;29.00;94.60;;;;;;5038468;28;20212;-26
2023/07/15 12:56:26;;;;;;;3.92;1.90;;;29.00;94.60;;;;;;5024820;28;20225;-25
2023/07/15 12:58:59;;;;;;;3.05;1.60;;;29.00;94.50;;;;;;5026980;28;20662;-25
2023/07/15 13:01:28;;;;;;;2.78;1.75;;;29.00;94.50;;;;;;5034606;28;20567;-25
2023/07/15 13:03:56;;;;;;;2.80;1.70;;;29.00;94.50;;;;;;5035351;28;20220;-25